Time;durP1;ratioP1;P1;durP2;ratioP2;P2;SDS_P1;SDS_P2;PMS_P1;PMS_P2;Temp;Humidity;BMP_temperature;BMP_pressure;BME280_temperature;BME280_humidity;BME280_pressure;Samples;Min_cycle;Max_cycle;Signal;HPM_P1;HPM_P2
2022/12/12 00:01:21;;;;;;;20.10;11.53;;;;;;;;;;5027093;28;20609;-68
2022/12/12 00:03:46;;;;;;;23.10;11.87;;;;;;;;;;5020009;28;20605;-68
2022/12/12 00:06:12;;;;;;;24.80;12.80;;;;;;;;;;5020308;28;20268;-67
2022/12/12 00:08:37;;;;;;;21.50;11.80;;;;;;;;;;5019818;28;20187;-67
2022/12/12 00:11:05;;;;;;;22.10;11.83;;;;;;;;;;5016874;28;20241;-67
2022/12/12 00:13:30;;;;;;;22.57;12.27;;;;;;;;;;5013174;28;20249;-67
2022/12/12 00:15:56;;;;;;;23.57;12.17;;;;;;;;;;5026471;28;20581;-67
2022/12/12 00:18:21;;;;;;;20.60;11.77;;;;;;;;;;5012771;28;20225;-67
2022/12/12 00:20:51;;;;;;;21.23;11.90;;;;;;;;;;5024902;28;20183;-66
2022/12/12 00:23:17;;;;;;;21.33;12.20;;;;;;;;;;5012652;28;20197;-67
2022/12/12 00:25:42;;;;;;;21.60;11.70;;;;;;;;;;5017427;28;20198;-67
2022/12/12 00:28:07;;;;;;;20.47;11.57;;;;;;;;;;5029462;28;20676;-67
2022/12/12 00:30:33;;;;;;;22.77;12.47;;;;;;;;;;5030849;28;20627;-67
2022/12/12 00:32:58;;;;;;;21.27;10.90;;;;;;;;;;5033958;28;20191;-67
2022/12/12 00:35:23;;;;;;;19.50;10.47;;;;;;;;;;5030480;28;20186;-67
2022/12/12 00:37:50;;;;;;;21.70;12.23;;;;;;;;;;5033039;28;20326;-67
2022/12/12 00:40:15;;;;;;;19.17;11.13;;;;;;;;;;5030864;28;20429;-67
2022/12/12 00:42:41;;;;;;;22.37;11.93;;;;;;;;;;5033287;28;20235;-67
2022/12/12 00:45:07;;;;;;;20.00;11.13;;;;;;;;;;5015754;28;20483;-67
2022/12/12 00:47:32;;;;;;;21.77;11.70;;;;;;;;;;5026701;28;20194;-67
2022/12/12 00:49:58;;;;;;;20.93;11.57;;;;;;;;;;5030378;28;20193;-67
2022/12/12 00:52:23;;;;;;;23.67;12.13;;;;;;;;;;5020976;28;20215;-67
2022/12/12 00:54:48;;;;;;;23.40;12.80;;;;;;;;;;5011913;28;20206;-67
2022/12/12 00:57:14;;;;;;;21.50;10.80;;;;;;;;;;5022483;28;20194;-67
2022/12/12 00:59:39;;;;;;;23.73;11.83;;;;;;;;;;5010387;28;20203;-67
2022/12/12 01:02:04;;;;;;;21.37;11.57;;;;;;;;;;5025832;28;20237;-67
2022/12/12 01:04:30;;;;;;;22.00;11.57;;;;;;;;;;5016140;28;20187;-67
2022/12/12 01:06:55;;;;;;;24.17;11.80;;;;;;;;;;5023006;28;20175;-67
2022/12/12 01:09:20;;;;;;;22.17;12.07;;;;;;;;;;5019644;28;20182;-67
2022/12/12 01:11:46;;;;;;;20.33;10.63;;;;;;;;;;5028146;28;20389;-67
2022/12/12 01:14:11;;;;;;;22.10;11.87;;;;;;;;;;5028527;28;20259;-67
2022/12/12 01:16:36;;;;;;;19.80;10.97;;;;;;;;;;5022818;28;20244;-67
2022/12/12 01:19:02;;;;;;;22.80;12.50;;;;;;;;;;5028235;28;20245;-67
2022/12/12 01:21:27;;;;;;;23.30;12.23;;;;;;;;;;5015552;28;20186;-67
2022/12/12 01:23:53;;;;;;;22.80;12.97;;;;;;;;;;5028278;28;20288;-67
2022/12/12 01:26:21;;;;;;;23.07;12.33;;;;;;;;;;5012629;28;20226;-67
2022/12/12 01:28:47;;;;;;;22.77;12.27;;;;;;;;;;5015085;28;20195;-67
2022/12/12 01:31:13;;;;;;;23.67;12.60;;;;;;;;;;5020454;28;20207;-67
2022/12/12 01:33:39;;;;;;;21.10;11.97;;;;;;;;;;5025623;28;20190;-67
2022/12/12 01:36:05;;;;;;;22.77;12.83;;;;;;;;;;5021892;28;20240;-67
2022/12/12 01:38:31;;;;;;;23.43;12.83;;;;;;;;;;5013495;28;20178;-67
2022/12/12 01:40:56;;;;;;;20.27;11.87;;;;;;;;;;5022634;28;20682;-69
2022/12/12 01:43:23;;;;;;;22.00;12.10;;;;;;;;;;5013293;28;20186;-67
2022/12/12 01:45:58;;;;;;;25.97;13.30;;;;;;;;;;5014303;28;20248;-67
2022/12/12 01:48:30;;;;;;;21.30;11.53;;;;;;;;;;5010231;28;20197;-67
2022/12/12 01:51:00;;;;;;;22.60;12.10;;;;;;;;;;5009656;28;20541;-67
2022/12/12 01:53:28;;;;;;;22.97;12.27;;;;;;;;;;5009150;28;20191;-67
2022/12/12 01:55:54;;;;;;;21.23;12.23;;;;;;;;;;5021668;28;20566;-67
2022/12/12 01:58:20;;;;;;;22.40;12.63;;;;;;;;;;5018338;28;20191;-67
2022/12/12 02:00:45;;;;;;;20.13;11.60;;;;;;;;;;5017132;28;20219;-67
2022/12/12 02:03:11;;;;;;;23.97;12.37;;;;;;;;;;5021439;28;20234;-67
2022/12/12 02:05:41;;;;;;;22.93;11.37;;;;;;;;;;5022960;28;20300;-67
2022/12/12 02:08:08;;;;;;;20.90;12.23;;;;;;;;;;4991921;28;20198;-67
2022/12/12 02:10:33;;;;;;;24.63;12.47;;;;;;;;;;5016988;28;20193;-67
2022/12/12 02:13:03;;;;;;;24.70;12.10;;;;;;;;;;5024873;28;20178;-67
2022/12/12 02:15:39;;;;;;;23.47;12.17;;;;;;;;;;5034248;28;20545;-68
2022/12/12 02:18:23;;;;;;;22.50;12.37;;;;;;;;;;5025416;28;20641;-67
2022/12/12 02:21:23;;;;;;;21.80;11.83;;;;;;;;;;5036375;28;20181;-67
2022/12/12 02:24:10;;;;;;;20.87;11.63;;;;;;;;;;4993764;28;20209;-67
2022/12/12 02:26:48;;;;;;;22.23;11.63;;;;;;;;;;5028182;28;20185;-67
2022/12/12 02:29:40;;;;;;;23.87;11.90;;;;;;;;;;5024558;28;20197;-67
2022/12/12 02:32:30;;;;;;;23.83;12.23;;;;;;;;;;5015251;28;20268;-68
2022/12/12 02:35:24;;;;;;;21.87;11.83;;;;;;;;;;5017480;28;20194;-67
2022/12/12 02:38:29;;;;;;;20.63;11.13;;;;;;;;;;4984658;28;20269;-67
2022/12/12 02:41:25;;;;;;;23.17;12.03;;;;;;;;;;5022537;28;20645;-67
2022/12/12 02:44:12;;;;;;;18.67;10.37;;;;;;;;;;5022092;28;20598;-67
2022/12/12 02:46:59;;;;;;;21.30;11.30;;;;;;;;;;5011925;28;20236;-67
2022/12/12 02:49:31;;;;;;;22.63;11.93;;;;;;;;;;5027796;28;20210;-67
2022/12/12 02:51:58;;;;;;;20.47;11.77;;;;;;;;;;5025352;28;20204;-67
2022/12/12 02:54:23;;;;;;;23.20;12.47;;;;;;;;;;5020431;28;20631;-67
2022/12/12 02:56:51;;;;;;;23.60;13.03;;;;;;;;;;5022440;28;20192;-67
2022/12/12 02:59:32;;;;;;;24.03;12.77;;;;;;;;;;5022040;28;20197;-67
2022/12/12 03:02:27;;;;;;;20.27;11.90;;;;;;;;;;5015962;28;20233;-67
2022/12/12 03:08:15;;;;;;;21.50;11.50;;;;;;;;;;5025814;28;20613;-67
2022/12/12 03:10:54;;;;;;;26.20;12.97;;;;;;;;;;5025323;28;20641;-67
2022/12/12 03:13:37;;;;;;;23.73;11.50;;;;;;;;;;5027155;28;20201;-67
2022/12/12 03:16:20;;;;;;;23.37;12.07;;;;;;;;;;5011126;28;20194;-67
2022/12/12 03:19:04;;;;;;;23.40;12.30;;;;;;;;;;5018835;28;20625;-67
2022/12/12 03:21:48;;;;;;;24.07;12.87;;;;;;;;;;5021792;28;20708;-67
2022/12/12 03:24:30;;;;;;;23.63;13.47;;;;;;;;;;5014181;28;20183;-67
2022/12/12 03:27:03;;;;;;;22.53;12.00;;;;;;;;;;5020490;28;20665;-67
2022/12/12 03:29:39;;;;;;;22.83;12.10;;;;;;;;;;5026576;28;20259;-67
2022/12/12 03:32:16;;;;;;;24.70;13.30;;;;;;;;;;5020008;28;20286;-67
2022/12/12 03:34:48;;;;;;;26.30;13.53;;;;;;;;;;5020346;28;20174;-67
2022/12/12 03:37:23;;;;;;;27.70;13.93;;;;;;;;;;5024397;28;20645;-68
2022/12/12 03:39:55;;;;;;;24.97;13.07;;;;;;;;;;5020009;28;20260;-67
2022/12/12 03:42:26;;;;;;;24.03;12.97;;;;;;;;;;5010733;28;20623;-68
2022/12/12 03:44:59;;;;;;;24.00;13.40;;;;;;;;;;5029747;28;20273;-67
2022/12/12 03:47:31;;;;;;;22.07;12.27;;;;;;;;;;5024252;28;20197;-68
2022/12/12 03:50:19;;;;;;;24.73;13.63;;;;;;;;;;5026046;28;20186;-68
2022/12/12 03:52:55;;;;;;;25.47;12.73;;;;;;;;;;5027571;28;20577;-67
2022/12/12 03:55:49;;;;;;;20.80;12.03;;;;;;;;;;5017646;28;20849;-68
2022/12/12 03:58:15;;;;;;;22.57;12.73;;;;;;;;;;5025574;28;20629;-68
2022/12/12 04:00:43;;;;;;;25.20;13.43;;;;;;;;;;5012134;28;20242;-67
2022/12/12 04:03:25;;;;;;;24.53;13.20;;;;;;;;;;5017177;28;20331;-68
2022/12/12 04:14:49;;;;;;;23.93;13.43;;;;;;;;;;5037957;28;20196;-67
2022/12/12 04:17:18;;;;;;;25.60;13.30;;;;;;;;;;5028240;28;20190;-68
2022/12/12 04:26:37;;;;;;;26.50;13.00;;;;;;;;;;5028001;28;20197;-67
2022/12/12 04:28:29;;;;;;;25.90;12.63;;;;;;;;;;5024986;28;20336;-68
2022/12/12 04:31:00;;;;;;;28.70;14.33;;;;;;;;;;5021605;28;20189;-67
2022/12/12 04:33:35;;;;;;;25.50;13.23;;;;;;;;;;5026897;28;20186;-67
2022/12/12 04:36:02;;;;;;;25.50;13.43;;;;;;;;;;5011613;28;20646;-67
2022/12/12 04:38:28;;;;;;;26.57;13.33;;;;;;;;;;5028203;28;20190;-68
2022/12/12 04:40:57;;;;;;;25.77;14.40;;;;;;;;;;5022338;28;20182;-68
2022/12/12 04:43:34;;;;;;;26.07;13.40;;;;;;;;;;5025082;28;20186;-68
2022/12/12 04:46:07;;;;;;;24.63;13.33;;;;;;;;;;5042314;28;20181;-67
2022/12/12 04:48:39;;;;;;;26.20;13.67;;;;;;;;;;5028060;28;20190;-68
2022/12/12 04:51:06;;;;;;;27.07;13.80;;;;;;;;;;5020632;28;20570;-68
2022/12/12 04:53:37;;;;;;;24.70;13.40;;;;;;;;;;5022046;28;20533;-68
2022/12/12 04:56:08;;;;;;;23.17;12.23;;;;;;;;;;5017834;28;20270;-67
2022/12/12 04:58:36;;;;;;;25.27;13.27;;;;;;;;;;5024553;28;20192;-67
2022/12/12 05:01:17;;;;;;;27.13;13.37;;;;;;;;;;5020904;28;20206;-67
2022/12/12 05:03:50;;;;;;;25.43;12.47;;;;;;;;;;5022888;28;20669;-68
2022/12/12 05:06:20;;;;;;;24.10;12.83;;;;;;;;;;5026995;28;20198;-68
2022/12/12 05:08:48;;;;;;;24.03;12.37;;;;;;;;;;5024692;28;20185;-67
2022/12/12 05:11:17;;;;;;;24.10;12.73;;;;;;;;;;5013334;28;20281;-68
2022/12/12 05:13:42;;;;;;;25.67;12.77;;;;;;;;;;5022552;28;20182;-68
2022/12/12 05:16:27;;;;;;;25.33;13.60;;;;;;;;;;5015567;28;20204;-68
2022/12/12 05:18:53;;;;;;;26.97;12.43;;;;;;;;;;5023346;28;20186;-68
2022/12/12 05:21:19;;;;;;;22.57;12.20;;;;;;;;;;5015231;28;20178;-67
2022/12/12 05:23:44;;;;;;;28.67;13.63;;;;;;;;;;5028314;28;20262;-68
2022/12/12 05:26:31;;;;;;;26.10;13.87;;;;;;;;;;5027198;28;20657;-67
2022/12/12 05:28:56;;;;;;;25.23;13.13;;;;;;;;;;5022805;28;20281;-68
2022/12/12 05:31:22;;;;;;;25.63;13.27;;;;;;;;;;5028908;28;20302;-67
2022/12/12 05:33:48;;;;;;;26.33;13.33;;;;;;;;;;5022679;28;20190;-67
2022/12/12 05:36:13;;;;;;;26.60;12.70;;;;;;;;;;5010410;28;20541;-67
2022/12/12 05:38:39;;;;;;;24.77;13.50;;;;;;;;;;5028103;28;20186;-67
2022/12/12 05:41:05;;;;;;;27.37;14.47;;;;;;;;;;5018939;28;21270;-67
2022/12/12 05:43:31;;;;;;;28.30;13.23;;;;;;;;;;5015482;28;20229;-69
2022/12/12 05:45:56;;;;;;;24.03;13.27;;;;;;;;;;5014832;28;20183;-67
2022/12/12 05:48:21;;;;;;;26.33;13.43;;;;;;;;;;5010988;28;20278;-67
2022/12/12 05:50:47;;;;;;;26.77;13.63;;;;;;;;;;5012255;28;20207;-67
2022/12/12 05:53:12;;;;;;;28.27;13.50;;;;;;;;;;5013760;28;20265;-67
2022/12/12 05:55:38;;;;;;;28.30;13.10;;;;;;;;;;5011996;28;20254;-67
2022/12/12 05:58:03;;;;;;;26.90;13.53;;;;;;;;;;5015354;28;20188;-67
2022/12/12 06:00:28;;;;;;;24.83;12.77;;;;;;;;;;5013332;28;20205;-67
2022/12/12 06:02:54;;;;;;;26.63;13.87;;;;;;;;;;5017391;28;20601;-67
2022/12/12 06:05:19;;;;;;;27.83;13.27;;;;;;;;;;5011640;28;20178;-67
2022/12/12 06:07:44;;;;;;;23.83;12.97;;;;;;;;;;5023748;28;20182;-69
2022/12/12 06:10:10;;;;;;;25.53;14.00;;;;;;;;;;5010831;28;20218;-67
2022/12/12 06:12:36;;;;;;;22.77;11.63;;;;;;;;;;5009388;28;20198;-68
2022/12/12 06:15:01;;;;;;;25.87;13.40;;;;;;;;;;5030296;28;20595;-68
2022/12/12 06:17:27;;;;;;;25.30;13.53;;;;;;;;;;5018978;28;20193;-68
2022/12/12 06:19:52;;;;;;;23.67;12.57;;;;;;;;;;5035759;28;20240;-67
2022/12/12 06:22:18;;;;;;;21.13;11.57;;;;;;;;;;5022355;28;20179;-67
2022/12/12 06:24:43;;;;;;;23.23;12.60;;;;;;;;;;5027203;28;20182;-68
2022/12/12 06:27:08;;;;;;;26.07;13.20;;;;;;;;;;5016694;28;20459;-66
2022/12/12 06:29:34;;;;;;;27.20;13.07;;;;;;;;;;5027001;28;20603;-67
2022/12/12 06:31:59;;;;;;;24.17;13.53;;;;;;;;;;5017469;28;20210;-67
2022/12/12 06:34:24;;;;;;;34.30;15.30;;;;;;;;;;5021092;28;20198;-67
2022/12/12 06:36:50;;;;;;;25.87;14.00;;;;;;;;;;5012598;28;20506;-67
2022/12/12 06:39:16;;;;;;;25.97;14.00;;;;;;;;;;5022989;28;20179;-67
2022/12/12 06:41:42;;;;;;;24.33;13.83;;;;;;;;;;5011215;28;20643;-67
2022/12/12 06:44:07;;;;;;;27.70;13.47;;;;;;;;;;5012168;28;20179;-67
2022/12/12 06:46:33;;;;;;;28.23;14.07;;;;;;;;;;5011648;28;20201;-67
2022/12/12 06:48:58;;;;;;;26.40;13.97;;;;;;;;;;5026824;28;20535;-67
2022/12/12 06:51:28;;;;;;;22.00;12.13;;;;;;;;;;5026579;28;20214;-68
2022/12/12 06:53:54;;;;;;;26.77;12.80;;;;;;;;;;5018902;28;20272;-69
2022/12/12 06:56:22;;;;;;;28.17;13.67;;;;;;;;;;5009200;28;20603;-67
2022/12/12 06:58:48;;;;;;;27.17;13.93;;;;;;;;;;5006498;28;20210;-66
2022/12/12 07:01:14;;;;;;;24.43;13.33;;;;;;;;;;5014035;28;20455;-66
2022/12/12 07:03:40;;;;;;;26.63;13.73;;;;;;;;;;5010005;28;20265;-67
2022/12/12 07:06:06;;;;;;;25.03;13.10;;;;;;;;;;5010129;28;20274;-66
2022/12/12 07:08:35;;;;;;;25.53;14.37;;;;;;;;;;5007740;28;20179;-67
2022/12/12 07:11:06;;;;;;;26.63;13.67;;;;;;;;;;5014306;28;20195;-67
2022/12/12 07:13:31;;;;;;;23.80;13.23;;;;;;;;;;5028365;28;20676;-67
2022/12/12 07:15:57;;;;;;;29.07;14.70;;;;;;;;;;5025054;28;20270;-67
2022/12/12 07:18:22;;;;;;;28.47;14.80;;;;;;;;;;5021222;28;20289;-67
2022/12/12 07:20:48;;;;;;;32.97;15.97;;;;;;;;;;5023088;28;20191;-67
2022/12/12 07:23:14;;;;;;;30.23;16.40;;;;;;;;;;5028523;28;20193;-67
2022/12/12 07:25:41;;;;;;;31.80;16.10;;;;;;;;;;5029593;28;20224;-67
2022/12/12 07:28:11;;;;;;;35.80;16.63;;;;;;;;;;5013523;28;20202;-66
2022/12/12 07:30:45;;;;;;;29.30;15.87;;;;;;;;;;5017397;28;20653;-66
2022/12/12 07:33:11;;;;;;;30.57;16.27;;;;;;;;;;5013691;28;20678;-66
2022/12/12 07:35:37;;;;;;;28.83;16.20;;;;;;;;;;5016962;28;20185;-67
2022/12/12 07:38:03;;;;;;;30.23;15.50;;;;;;;;;;5018574;28;20195;-67
2022/12/12 07:40:29;;;;;;;33.73;16.37;;;;;;;;;;5016117;28;20182;-66
2022/12/12 07:42:54;;;;;;;31.90;16.30;;;;;;;;;;5012178;28;20187;-66
2022/12/12 07:45:19;;;;;;;32.30;15.90;;;;;;;;;;5015871;28;21291;-67
2022/12/12 07:47:45;;;;;;;30.77;15.80;;;;;;;;;;5020979;28;20194;-67
2022/12/12 07:50:11;;;;;;;31.60;16.70;;;;;;;;;;5028028;28;20659;-67
2022/12/12 07:52:36;;;;;;;32.43;15.97;;;;;;;;;;5027171;28;20244;-67
2022/12/12 07:55:03;;;;;;;32.73;15.57;;;;;;;;;;5027220;28;20179;-67
2022/12/12 07:57:29;;;;;;;30.07;15.40;;;;;;;;;;5027787;28;20186;-67
2022/12/12 07:59:55;;;;;;;32.77;16.33;;;;;;;;;;5021076;28;20908;-67
2022/12/12 08:02:20;;;;;;;31.67;15.57;;;;;;;;;;5017353;28;20226;-67
2022/12/12 08:04:45;;;;;;;31.33;15.37;;;;;;;;;;5016716;28;20255;-67
2022/12/12 08:07:11;;;;;;;33.10;15.53;;;;;;;;;;5014687;28;20328;-67
2022/12/12 08:09:36;;;;;;;30.83;16.27;;;;;;;;;;5013861;28;20190;-67
2022/12/12 08:12:02;;;;;;;28.50;14.80;;;;;;;;;;5012828;28;20203;-67
2022/12/12 08:14:27;;;;;;;30.70;14.90;;;;;;;;;;5015121;28;20272;-67
2022/12/12 08:16:53;;;;;;;30.13;15.23;;;;;;;;;;5018463;28;20182;-67
2022/12/12 08:19:18;;;;;;;31.70;16.20;;;;;;;;;;5017220;28;20680;-67
2022/12/12 08:21:44;;;;;;;28.93;15.10;;;;;;;;;;5025316;28;20225;-67
2022/12/12 08:24:12;;;;;;;32.47;16.33;;;;;;;;;;5017424;28;20175;-67
2022/12/12 08:26:38;;;;;;;31.43;16.73;;;;;;;;;;5017776;28;20265;-67
2022/12/12 08:29:04;;;;;;;31.33;16.83;;;;;;;;;;5026603;28;20353;-67
2022/12/12 08:31:30;;;;;;;30.63;15.97;;;;;;;;;;5019928;28;20206;-67
2022/12/12 08:33:55;;;;;;;30.93;15.87;;;;;;;;;;5014319;28;20888;-67
2022/12/12 08:36:29;;;;;;;31.30;16.43;;;;;;;;;;5013772;28;20222;-67
2022/12/12 08:38:55;;;;;;;27.63;14.70;;;;;;;;;;5012655;28;20179;-67
2022/12/12 08:41:22;;;;;;;32.00;15.77;;;;;;;;;;5010118;28;20233;-67
2022/12/12 08:43:48;;;;;;;28.60;15.33;;;;;;;;;;5033028;28;20178;-67
2022/12/12 08:46:15;;;;;;;30.83;15.57;;;;;;;;;;5030619;28;20253;-67
2022/12/12 08:48:41;;;;;;;30.53;15.40;;;;;;;;;;5015894;28;20181;-68
2022/12/12 08:51:07;;;;;;;33.10;16.27;;;;;;;;;;5032977;28;20182;-67
2022/12/12 08:53:32;;;;;;;31.17;15.90;;;;;;;;;;5033016;28;20201;-67
2022/12/12 08:55:58;;;;;;;31.07;16.53;;;;;;;;;;5030063;28;20178;-68
2022/12/12 08:58:23;;;;;;;29.07;15.40;;;;;;;;;;5016335;28;20258;-67
2022/12/12 09:00:49;;;;;;;32.40;17.53;;;;;;;;;;5014881;28;20230;-67
2022/12/12 09:03:14;;;;;;;32.97;16.17;;;;;;;;;;5012344;28;20538;-67
2022/12/12 09:05:44;;;;;;;31.17;16.43;;;;;;;;;;5012535;28;20180;-68
2022/12/12 09:08:10;;;;;;;32.30;15.30;;;;;;;;;;5014936;28;20175;-68
2022/12/12 09:10:36;;;;;;;31.10;16.67;;;;;;;;;;5011721;28;20194;-67
2022/12/12 09:13:01;;;;;;;30.73;16.03;;;;;;;;;;5012854;28;20210;-67
2022/12/12 09:15:26;;;;;;;34.10;15.87;;;;;;;;;;5010734;28;20174;-67
2022/12/12 09:17:52;;;;;;;30.57;15.20;;;;;;;;;;5012893;28;20214;-67
2022/12/12 09:20:17;;;;;;;29.67;14.40;;;;;;;;;;5011225;28;20586;-67
2022/12/12 09:22:42;;;;;;;27.73;15.13;;;;;;;;;;5023066;28;20602;-68
2022/12/12 09:25:09;;;;;;;32.73;16.53;;;;;;;;;;5034622;28;20228;-67
2022/12/12 09:27:34;;;;;;;28.03;15.73;;;;;;;;;;5022588;28;20237;-67
2022/12/12 09:30:00;;;;;;;31.00;16.00;;;;;;;;;;5021970;28;20238;-67
2022/12/12 09:32:25;;;;;;;28.93;15.57;;;;;;;;;;5027117;28;20224;-67
2022/12/12 09:34:51;;;;;;;30.57;15.47;;;;;;;;;;5030803;28;20190;-67
2022/12/12 09:37:16;;;;;;;29.50;15.63;;;;;;;;;;5022889;28;20182;-68
2022/12/12 09:39:42;;;;;;;31.93;15.10;;;;;;;;;;5028790;28;20185;-68
2022/12/12 09:42:18;;;;;;;30.63;16.07;;;;;;;;;;5014949;28;20233;-67
2022/12/12 09:44:44;;;;;;;29.73;15.23;;;;;;;;;;5031301;28;20214;-67
2022/12/12 09:47:19;;;;;;;28.20;15.40;;;;;;;;;;5022071;28;20577;-67
2022/12/12 09:49:48;;;;;;;31.53;16.60;;;;;;;;;;5029643;28;20203;-67
2022/12/12 09:52:16;;;;;;;30.07;15.63;;;;;;;;;;5019635;28;20198;-67
2022/12/12 09:54:42;;;;;;;32.60;16.43;;;;;;;;;;5024550;28;20185;-68
2022/12/12 09:57:35;;;;;;;30.77;15.70;;;;;;;;;;5026442;28;20277;-67
2022/12/12 10:00:11;;;;;;;31.37;16.07;;;;;;;;;;5020924;28;20237;-67
2022/12/12 10:03:08;;;;;;;32.20;16.33;;;;;;;;;;5018574;28;20637;-68
2022/12/12 10:05:56;;;;;;;25.73;14.60;;;;;;;;;;5011323;28;20204;-67
2022/12/12 10:08:37;;;;;;;26.63;14.33;;;;;;;;;;5012175;28;20193;-68
2022/12/12 10:11:48;;;;;;;30.53;15.63;;;;;;;;;;5015214;28;20182;-68
2022/12/12 10:13:52;;;;;;;28.97;15.17;;;;;;;;;;5015772;28;20202;-68
2022/12/12 10:16:18;;;;;;;27.47;14.73;;;;;;;;;;5016997;28;20175;-67
2022/12/12 10:18:48;;;;;;;28.93;15.10;;;;;;;;;;5013402;28;20596;-67
2022/12/12 10:21:26;;;;;;;26.00;14.23;;;;;;;;;;5013810;28;20185;-68
2022/12/12 10:24:01;;;;;;;26.53;13.80;;;;;;;;;;5010978;28;20190;-68
2022/12/12 10:26:28;;;;;;;29.67;15.07;;;;;;;;;;5008881;28;20261;-68
2022/12/12 10:29:01;;;;;;;26.67;13.13;;;;;;;;;;5013561;28;20194;-68
2022/12/12 10:31:39;;;;;;;22.53;13.10;;;;;;;;;;5012749;28;20674;-68
2022/12/12 10:34:21;;;;;;;23.03;12.83;;;;;;;;;;5010823;28;20190;-67
2022/12/12 10:37:02;;;;;;;28.77;13.53;;;;;;;;;;5014084;28;20255;-68
2022/12/12 10:39:52;;;;;;;23.80;12.50;;;;;;;;;;5012951;28;20269;-68
2022/12/12 10:42:39;;;;;;;26.37;13.13;;;;;;;;;;5012824;28;20186;-68
2022/12/12 10:45:30;;;;;;;23.30;12.67;;;;;;;;;;5021853;28;20177;-68
2022/12/12 10:47:55;;;;;;;28.33;14.03;;;;;;;;;;5017747;28;20194;-68
2022/12/12 10:50:26;;;;;;;26.77;13.60;;;;;;;;;;5021112;28;20185;-68
2022/12/12 10:52:51;;;;;;;27.80;14.13;;;;;;;;;;5020458;28;20199;-68
2022/12/12 10:55:29;;;;;;;28.37;13.33;;;;;;;;;;5014169;28;20198;-68
2022/12/12 10:58:03;;;;;;;28.80;14.97;;;;;;;;;;5013547;28;20668;-68
2022/12/12 11:00:32;;;;;;;28.83;15.23;;;;;;;;;;5013435;28;20194;-68
2022/12/12 11:02:58;;;;;;;30.70;14.70;;;;;;;;;;5013427;28;20530;-68
2022/12/12 11:05:27;;;;;;;29.90;15.50;;;;;;;;;;5013492;28;20602;-68
2022/12/12 11:08:03;;;;;;;32.73;17.00;;;;;;;;;;5014413;28;20603;-68
2022/12/12 11:10:35;;;;;;;32.33;17.33;;;;;;;;;;5015667;28;20544;-68
2022/12/12 11:13:13;;;;;;;32.87;16.57;;;;;;;;;;5012053;28;20214;-68
2022/12/12 11:15:55;;;;;;;33.03;16.37;;;;;;;;;;5014207;28;20182;-68
2022/12/12 11:18:22;;;;;;;34.63;18.00;;;;;;;;;;5016999;28;20186;-68
2022/12/12 11:21:00;;;;;;;41.77;22.00;;;;;;;;;;5013667;28;20521;-68
2022/12/12 11:23:28;;;;;;;42.83;22.03;;;;;;;;;;5023378;28;20185;-68
2022/12/12 11:25:59;;;;;;;43.97;21.73;;;;;;;;;;5014100;28;20183;-68
2022/12/12 11:28:30;;;;;;;41.80;21.03;;;;;;;;;;5013109;28;20498;-68
2022/12/12 11:30:56;;;;;;;47.37;23.23;;;;;;;;;;5017117;28;20182;-68
2022/12/12 11:33:38;;;;;;;45.90;23.63;;;;;;;;;;5014827;28;20205;-68
2022/12/12 11:36:05;;;;;;;44.17;22.40;;;;;;;;;;5015092;28;20186;-67
2022/12/12 11:38:38;;;;;;;46.17;22.53;;;;;;;;;;5016694;28;20584;-67
2022/12/12 11:41:06;;;;;;;46.23;22.60;;;;;;;;;;5029525;28;20189;-68
2022/12/12 11:43:52;;;;;;;45.67;21.63;;;;;;;;;;5028526;28;20179;-67
2022/12/12 11:46:22;;;;;;;49.17;24.17;;;;;;;;;;5011624;28;20190;-67
2022/12/12 11:48:50;;;;;;;49.03;23.70;;;;;;;;;;5013734;28;20181;-68
2022/12/12 11:51:48;;;;;;;47.33;24.07;;;;;;;;;;5012460;28;20206;-68
2022/12/12 11:54:18;;;;;;;50.77;23.90;;;;;;;;;;4991011;28;20202;-68
2022/12/12 11:56:49;;;;;;;47.23;24.60;;;;;;;;;;5010649;28;20189;-68
2022/12/12 11:59:20;;;;;;;48.53;24.20;;;;;;;;;;5021632;28;20182;-68
2022/12/12 12:02:00;;;;;;;50.43;25.37;;;;;;;;;;5010987;28;20230;-68
2022/12/12 12:04:36;;;;;;;50.63;25.80;;;;;;;;;;5010171;28;20195;-68
2022/12/12 12:07:27;;;;;;;52.53;26.37;;;;;;;;;;5014771;28;20181;-68
2022/12/12 12:10:07;;;;;;;49.33;24.40;;;;;;;;;;5020544;28;20630;-68
2022/12/12 12:12:50;;;;;;;50.77;25.87;;;;;;;;;;5009847;28;20226;-68
2022/12/12 12:15:34;;;;;;;48.67;23.33;;;;;;;;;;5019888;28;20255;-68
2022/12/12 12:18:08;;;;;;;49.70;24.50;;;;;;;;;;5024699;28;20183;-68
2022/12/12 12:21:13;;;;;;;48.43;23.87;;;;;;;;;;5031544;28;20589;-68
2022/12/12 12:24:11;;;;;;;45.20;23.70;;;;;;;;;;5017552;28;20189;-68
2022/12/12 12:27:14;;;;;;;47.93;23.90;;;;;;;;;;5030019;28;20178;-67
2022/12/12 12:29:57;;;;;;;48.50;24.30;;;;;;;;;;5013765;28;20183;-68
2022/12/12 12:32:32;;;;;;;43.07;22.23;;;;;;;;;;5011824;28;20214;-68
2022/12/12 12:35:15;;;;;;;41.37;21.47;;;;;;;;;;5012073;28;20171;-68
2022/12/12 12:38:08;;;;;;;46.70;23.57;;;;;;;;;;5011661;28;20445;-68
2022/12/12 12:41:02;;;;;;;48.77;24.40;;;;;;;;;;5014034;28;20185;-68
2022/12/12 12:43:56;;;;;;;49.57;23.93;;;;;;;;;;5019469;28;20195;-68
2022/12/12 12:46:31;;;;;;;54.30;26.33;;;;;;;;;;5012186;28;20178;-68
2022/12/12 12:49:09;;;;;;;54.70;25.20;;;;;;;;;;5019665;28;20194;-68
2022/12/12 12:51:36;;;;;;;52.67;24.47;;;;;;;;;;5015396;28;20191;-68
2022/12/12 12:54:19;;;;;;;44.43;22.20;;;;;;;;;;5011978;28;20637;-67
2022/12/12 12:57:02;;;;;;;48.90;24.90;;;;;;;;;;5010159;28;20175;-68
2022/12/12 12:59:35;;;;;;;49.57;24.17;;;;;;;;;;5012558;28;20214;-68
2022/12/12 13:02:10;;;;;;;42.77;22.33;;;;;;;;;;5016406;28;20222;-68
2022/12/12 13:04:45;;;;;;;50.20;24.30;;;;;;;;;;5020566;28;20179;-68
2022/12/12 13:07:53;;;;;;;56.03;26.30;;;;;;;;;;5018731;28;20572;-68
2022/12/12 13:10:30;;;;;;;51.37;25.03;;;;;;;;;;5008959;28;20198;-67
2022/12/12 13:13:23;;;;;;;52.10;25.27;;;;;;;;;;5016891;28;20207;-66
2022/12/12 13:16:11;;;;;;;51.87;23.43;;;;;;;;;;5015881;28;20194;-67
2022/12/12 13:18:39;;;;;;;47.73;23.90;;;;;;;;;;5012725;28;20261;-67
2022/12/12 13:21:13;;;;;;;46.30;21.77;;;;;;;;;;5011055;28;20305;-67
2022/12/12 13:24:01;;;;;;;47.57;22.30;;;;;;;;;;5010695;28;20193;-67
2022/12/12 13:26:48;;;;;;;45.27;20.90;;;;;;;;;;5014567;28;20183;-67
2022/12/12 13:29:35;;;;;;;46.13;22.73;;;;;;;;;;5019074;28;20226;-67
2022/12/12 13:32:12;;;;;;;44.47;21.07;;;;;;;;;;5024946;28;20276;-67
2022/12/12 13:34:43;;;;;;;40.97;21.40;;;;;;;;;;5022741;28;20257;-67
2022/12/12 13:37:19;;;;;;;42.13;20.70;;;;;;;;;;5043819;28;20566;-68
2022/12/12 13:39:45;;;;;;;42.33;20.57;;;;;;;;;;5035807;28;20193;-67
2022/12/12 13:42:12;;;;;;;47.40;20.90;;;;;;;;;;5026561;28;20198;-67
2022/12/12 13:44:43;;;;;;;45.63;22.33;;;;;;;;;;5030936;28;20809;-67
2022/12/12 13:47:20;;;;;;;41.23;20.07;;;;;;;;;;5026352;28;20170;-68
2022/12/12 13:49:49;;;;;;;43.20;19.67;;;;;;;;;;5046795;28;20216;-67
2022/12/12 13:52:24;;;;;;;42.67;19.10;;;;;;;;;;5029710;28;20670;-67
2022/12/12 13:54:53;;;;;;;39.87;18.63;;;;;;;;;;5032855;28;20682;-67
2022/12/12 13:57:24;;;;;;;36.00;18.30;;;;;;;;;;5026225;28;20727;-67
2022/12/12 13:59:52;;;;;;;39.80;17.60;;;;;;;;;;5040593;28;20201;-68
2022/12/12 14:02:31;;;;;;;43.17;18.77;;;;;;;;;;5041047;28;20483;-67
2022/12/12 14:05:08;;;;;;;36.57;17.40;;;;;;;;;;5032203;28;20217;-68
2022/12/12 14:07:34;;;;;;;29.70;15.10;;;;;;;;;;5028945;28;20201;-67
2022/12/12 14:10:13;;;;;;;31.07;14.60;;;;;;;;;;5026046;28;20637;-68
2022/12/12 14:12:39;;;;;;;28.40;14.10;;;;;;;;;;5043182;28;20177;-68
2022/12/12 14:15:16;;;;;;;28.03;14.13;;;;;;;;;;5038193;28;20265;-68
2022/12/12 14:17:54;;;;;;;29.37;14.87;;;;;;;;;;5027048;28;20273;-67
2022/12/12 14:20:33;;;;;;;30.20;13.17;;;;;;;;;;5033921;28;20264;-67
2022/12/12 14:22:58;;;;;;;27.03;13.60;;;;;;;;;;5030689;28;20185;-68
2022/12/12 14:25:38;;;;;;;27.50;12.87;;;;;;;;;;5033328;28;20339;-68
2022/12/12 14:28:15;;;;;;;33.70;14.47;;;;;;;;;;5035763;28;20189;-68
2022/12/12 14:30:49;;;;;;;29.50;14.03;;;;;;;;;;5036628;28;20185;-68
2022/12/12 14:33:14;;;;;;;31.00;13.87;;;;;;;;;;5038540;28;20184;-68
2022/12/12 14:35:54;;;;;;;29.57;14.20;;;;;;;;;;5041116;28;20545;-68
2022/12/12 14:38:36;;;;;;;31.80;14.63;;;;;;;;;;5037740;28;20224;-68
2022/12/12 14:41:09;;;;;;;27.17;12.93;;;;;;;;;;5039540;28;20182;-68
2022/12/12 14:43:40;;;;;;;26.53;13.20;;;;;;;;;;5034526;28;20323;-67
2022/12/12 14:46:05;;;;;;;29.00;13.47;;;;;;;;;;5029889;28;20293;-68
2022/12/12 14:48:35;;;;;;;27.97;13.03;;;;;;;;;;5013553;28;20729;-67
2022/12/12 14:51:05;;;;;;;28.30;13.07;;;;;;;;;;5014058;28;20193;-67
2022/12/12 14:53:44;;;;;;;27.60;13.63;;;;;;;;;;5017109;28;20229;-68
2022/12/12 14:56:13;;;;;;;26.07;12.93;;;;;;;;;;5018844;28;20205;-68
2022/12/12 14:58:43;;;;;;;30.03;13.43;;;;;;;;;;5023757;28;20201;-68
2022/12/12 15:01:08;;;;;;;25.23;12.67;;;;;;;;;;5015471;28;20210;-68